sensor_id;sensor_type;location;lat;lon;timestamp;P1;durP1;ratioP1;P2;durP2;ratioP2
3197;SDS011;1611;49.394;11.136;2023-04-25T00:01:44;4.00;;;3.70;;
3197;SDS011;1611;49.394;11.136;2023-04-25T00:04:12;4.10;;;3.40;;
3197;SDS011;1611;49.394;11.136;2023-04-25T00:06:39;4.07;;;3.83;;
3197;SDS011;1611;49.394;11.136;2023-04-25T00:09:06;4.00;;;3.70;;
3197;SDS011;1611;49.394;11.136;2023-04-25T00:11:35;3.87;;;3.57;;
3197;SDS011;1611;49.394;11.136;2023-04-25T00:14:02;4.13;;;3.83;;
3197;SDS011;1611;49.394;11.136;2023-04-25T00:16:29;4.40;;;3.70;;
3197;SDS011;1611;49.394;11.136;2023-04-25T00:18:58;3.23;;;3.00;;
3197;SDS011;1611;49.394;11.136;2023-04-25T00:21:27;3.47;;;3.17;;
3197;SDS011;1611;49.394;11.136;2023-04-25T00:23:56;4.30;;;3.23;;
3197;SDS011;1611;49.394;11.136;2023-04-25T00:26:23;6.50;;;4.30;;
3197;SDS011;1611;49.394;11.136;2023-04-25T00:28:50;3.90;;;3.70;;
3197;SDS011;1611;49.394;11.136;2023-04-25T00:31:16;3.80;;;3.60;;
3197;SDS011;1611;49.394;11.136;2023-04-25T00:33:43;8.33;;;4.60;;
3197;SDS011;1611;49.394;11.136;2023-04-25T00:36:10;5.07;;;3.83;;
3197;SDS011;1611;49.394;11.136;2023-04-25T00:38:38;4.93;;;4.43;;
3197;SDS011;1611;49.394;11.136;2023-04-25T00:41:05;8.00;;;4.50;;
3197;SDS011;1611;49.394;11.136;2023-04-25T00:43:33;4.60;;;3.77;;
3197;SDS011;1611;49.394;11.136;2023-04-25T00:46:02;6.97;;;3.90;;
3197;SDS011;1611;49.394;11.136;2023-04-25T00:48:29;6.73;;;3.60;;
3197;SDS011;1611;49.394;11.136;2023-04-25T00:50:56;4.10;;;3.80;;
3197;SDS011;1611;49.394;11.136;2023-04-25T00:53:25;3.60;;;3.40;;
3197;SDS011;1611;49.394;11.136;2023-04-25T00:55:55;5.03;;;3.60;;
3197;SDS011;1611;49.394;11.136;2023-04-25T00:58:22;6.47;;;4.30;;
3197;SDS011;1611;49.394;11.136;2023-04-25T01:00:49;8.00;;;4.00;;
3197;SDS011;1611;49.394;11.136;2023-04-25T01:03:18;6.30;;;3.97;;
3197;SDS011;1611;49.394;11.136;2023-04-25T01:05:45;4.37;;;3.93;;
3197;SDS011;1611;49.394;11.136;2023-04-25T01:08:13;3.80;;;3.60;;
3197;SDS011;1611;49.394;11.136;2023-04-25T01:10:40;4.50;;;3.60;;
3197;SDS011;1611;49.394;11.136;2023-04-25T01:13:08;4.33;;;4.03;;
3197;SDS011;1611;49.394;11.136;2023-04-25T01:15:35;3.93;;;3.63;;
3197;SDS011;1611;49.394;11.136;2023-04-25T01:18:02;3.47;;;3.27;;
3197;SDS011;1611;49.394;11.136;2023-04-25T01:20:29;8.97;;;5.03;;
3197;SDS011;1611;49.394;11.136;2023-04-25T01:22:59;5.50;;;4.10;;
3197;SDS011;1611;49.394;11.136;2023-04-25T01:25:27;4.27;;;3.87;;
3197;SDS011;1611;49.394;11.136;2023-04-25T01:27:54;4.50;;;4.20;;
3197;SDS011;1611;49.394;11.136;2023-04-25T01:30:21;4.47;;;4.17;;
3197;SDS011;1611;49.394;11.136;2023-04-25T01:32:48;4.50;;;3.20;;
3197;SDS011;1611;49.394;11.136;2023-04-25T01:35:15;4.07;;;3.77;;
3197;SDS011;1611;49.394;11.136;2023-04-25T01:37:42;3.60;;;3.40;;
3197;SDS011;1611;49.394;11.136;2023-04-25T01:42:40;3.43;;;3.30;;
3197;SDS011;1611;49.394;11.136;2023-04-25T01:45:09;4.10;;;3.80;;
3197;SDS011;1611;49.394;11.136;2023-04-25T01:47:36;3.27;;;3.10;;
3197;SDS011;1611;49.394;11.136;2023-04-25T01:50:05;4.03;;;3.20;;
3197;SDS011;1611;49.394;11.136;2023-04-25T01:52:32;5.40;;;3.50;;
3197;SDS011;1611;49.394;11.136;2023-04-25T01:54:59;3.23;;;2.70;;
3197;SDS011;1611;49.394;11.136;2023-04-25T01:57:29;5.80;;;3.60;;
3197;SDS011;1611;49.394;11.136;2023-04-25T01:59:57;3.83;;;3.53;;
3197;SDS011;1611;49.394;11.136;2023-04-25T02:02:25;4.63;;;3.73;;
3197;SDS011;1611;49.394;11.136;2023-04-25T02:04:52;4.50;;;4.20;;
3197;SDS011;1611;49.394;11.136;2023-04-25T02:07:19;4.07;;;3.77;;
3197;SDS011;1611;49.394;11.136;2023-04-25T02:09:46;6.20;;;3.17;;
3197;SDS011;1611;49.394;11.136;2023-04-25T02:12:13;3.37;;;3.20;;
3197;SDS011;1611;49.394;11.136;2023-04-25T02:14:41;4.13;;;3.40;;
3197;SDS011;1611;49.394;11.136;2023-04-25T02:17:07;3.33;;;3.03;;
3197;SDS011;1611;49.394;11.136;2023-04-25T02:19:35;4.50;;;4.17;;
3197;SDS011;1611;49.394;11.136;2023-04-25T02:22:01;5.27;;;4.57;;
3197;SDS011;1611;49.394;11.136;2023-04-25T02:24:28;3.87;;;3.57;;
3197;SDS011;1611;49.394;11.136;2023-04-25T02:26:56;4.23;;;3.20;;
3197;SDS011;1611;49.394;11.136;2023-04-25T02:29:23;9.20;;;3.40;;
3197;SDS011;1611;49.394;11.136;2023-04-25T02:31:51;3.83;;;3.53;;
3197;SDS011;1611;49.394;11.136;2023-04-25T02:34:18;11.93;;;4.50;;
3197;SDS011;1611;49.394;11.136;2023-04-25T02:36:45;5.30;;;4.90;;
3197;SDS011;1611;49.394;11.136;2023-04-25T02:39:11;4.23;;;3.70;;
3197;SDS011;1611;49.394;11.136;2023-04-25T02:41:38;4.23;;;3.73;;
3197;SDS011;1611;49.394;11.136;2023-04-25T02:44:05;4.00;;;3.70;;
3197;SDS011;1611;49.394;11.136;2023-04-25T02:46:32;4.33;;;3.60;;
3197;SDS011;1611;49.394;11.136;2023-04-25T02:49:00;3.77;;;3.57;;
3197;SDS011;1611;49.394;11.136;2023-04-25T02:51:26;4.63;;;4.23;;
3197;SDS011;1611;49.394;11.136;2023-04-25T02:53:53;5.27;;;4.47;;
3197;SDS011;1611;49.394;11.136;2023-04-25T02:56:20;4.73;;;3.93;;
3197;SDS011;1611;49.394;11.136;2023-04-25T02:58:47;4.83;;;4.27;;
3197;SDS011;1611;49.394;11.136;2023-04-25T03:01:13;5.73;;;4.60;;
3197;SDS011;1611;49.394;11.136;2023-04-25T03:03:40;6.00;;;4.50;;
3197;SDS011;1611;49.394;11.136;2023-04-25T03:06:08;5.37;;;4.80;;
3197;SDS011;1611;49.394;11.136;2023-04-25T03:08:35;5.20;;;4.70;;
3197;SDS011;1611;49.394;11.136;2023-04-25T03:11:02;5.13;;;4.63;;
3197;SDS011;1611;49.394;11.136;2023-04-25T03:13:28;8.10;;;4.80;;
3197;SDS011;1611;49.394;11.136;2023-04-25T03:15:55;6.50;;;4.27;;
3197;SDS011;1611;49.394;11.136;2023-04-25T03:18:22;7.30;;;4.60;;
3197;SDS011;1611;49.394;11.136;2023-04-25T03:20:49;6.20;;;4.77;;
3197;SDS011;1611;49.394;11.136;2023-04-25T03:23:17;7.30;;;5.27;;
3197;SDS011;1611;49.394;11.136;2023-04-25T03:25:44;5.20;;;4.80;;
3197;SDS011;1611;49.394;11.136;2023-04-25T03:28:10;5.17;;;4.17;;
3197;SDS011;1611;49.394;11.136;2023-04-25T03:30:37;4.60;;;4.30;;
3197;SDS011;1611;49.394;11.136;2023-04-25T03:33:04;5.20;;;4.77;;
3197;SDS011;1611;49.394;11.136;2023-04-25T03:35:30;5.53;;;5.03;;
3197;SDS011;1611;49.394;11.136;2023-04-25T03:37:57;5.13;;;4.27;;
3197;SDS011;1611;49.394;11.136;2023-04-25T03:40:25;4.93;;;4.50;;
3197;SDS011;1611;49.394;11.136;2023-04-25T03:42:52;5.07;;;4.57;;
3197;SDS011;1611;49.394;11.136;2023-04-25T03:45:19;7.77;;;4.93;;
3197;SDS011;1611;49.394;11.136;2023-04-25T03:47:45;6.87;;;4.40;;
3197;SDS011;1611;49.394;11.136;2023-04-25T03:50:12;5.50;;;5.10;;
3197;SDS011;1611;49.394;11.136;2023-04-25T03:52:39;5.37;;;4.87;;
3197;SDS011;1611;49.394;11.136;2023-04-25T03:55:06;7.90;;;5.33;;
3197;SDS011;1611;49.394;11.136;2023-04-25T03:57:35;5.30;;;4.80;;
3197;SDS011;1611;49.394;11.136;2023-04-25T04:00:02;10.00;;;5.90;;
3197;SDS011;1611;49.394;11.136;2023-04-25T04:02:29;5.33;;;4.83;;
3197;SDS011;1611;49.394;11.136;2023-04-25T04:04:58;8.10;;;5.27;;
3197;SDS011;1611;49.394;11.136;2023-04-25T04:07:24;5.80;;;5.30;;
3197;SDS011;1611;49.394;11.136;2023-04-25T04:09:51;6.37;;;5.77;;
3197;SDS011;1611;49.394;11.136;2023-04-25T04:12:18;5.17;;;4.60;;
3197;SDS011;1611;49.394;11.136;2023-04-25T04:14:46;5.83;;;4.40;;
3197;SDS011;1611;49.394;11.136;2023-04-25T04:17:13;5.40;;;4.90;;
3197;SDS011;1611;49.394;11.136;2023-04-25T04:19:39;5.90;;;5.30;;
3197;SDS011;1611;49.394;11.136;2023-04-25T04:22:06;8.77;;;6.47;;
3197;SDS011;1611;49.394;11.136;2023-04-25T04:24:33;5.60;;;5.20;;
3197;SDS011;1611;49.394;11.136;2023-04-25T04:27:00;5.50;;;4.70;;
3197;SDS011;1611;49.394;11.136;2023-04-25T04:29:28;5.60;;;5.10;;
3197;SDS011;1611;49.394;11.136;2023-04-25T04:31:56;10.37;;;4.70;;
3197;SDS011;1611;49.394;11.136;2023-04-25T04:34:23;8.63;;;5.23;;
3197;SDS011;1611;49.394;11.136;2023-04-25T04:36:50;7.23;;;4.47;;
3197;SDS011;1611;49.394;11.136;2023-04-25T04:39:17;8.40;;;5.60;;
3197;SDS011;1611;49.394;11.136;2023-04-25T04:41:44;7.87;;;5.83;;
3197;SDS011;1611;49.394;11.136;2023-04-25T04:44:11;4.77;;;4.33;;
3197;SDS011;1611;49.394;11.136;2023-04-25T04:46:39;7.80;;;4.83;;
3197;SDS011;1611;49.394;11.136;2023-04-25T04:49:08;5.70;;;5.00;;
3197;SDS011;1611;49.394;11.136;2023-04-25T04:51:35;7.17;;;4.87;;
3197;SDS011;1611;49.394;11.136;2023-04-25T04:54:02;7.90;;;5.60;;
3197;SDS011;1611;49.394;11.136;2023-04-25T04:56:29;5.43;;;4.77;;
3197;SDS011;1611;49.394;11.136;2023-04-25T04:58:57;6.77;;;4.47;;
3197;SDS011;1611;49.394;11.136;2023-04-25T05:01:24;6.43;;;5.20;;
3197;SDS011;1611;49.394;11.136;2023-04-25T05:03:52;8.10;;;6.07;;
3197;SDS011;1611;49.394;11.136;2023-04-25T05:06:20;5.67;;;5.17;;
3197;SDS011;1611;49.394;11.136;2023-04-25T05:08:47;7.73;;;5.57;;
3197;SDS011;1611;49.394;11.136;2023-04-25T05:11:14;6.10;;;5.50;;
3197;SDS011;1611;49.394;11.136;2023-04-25T05:13:40;7.20;;;5.17;;
3197;SDS011;1611;49.394;11.136;2023-04-25T05:16:07;5.60;;;5.20;;
3197;SDS011;1611;49.394;11.136;2023-04-25T05:18:34;5.90;;;5.40;;
3197;SDS011;1611;49.394;11.136;2023-04-25T05:21:01;7.70;;;5.50;;
3197;SDS011;1611;49.394;11.136;2023-04-25T05:23:29;6.50;;;5.90;;
3197;SDS011;1611;49.394;11.136;2023-04-25T05:25:56;8.63;;;6.83;;
3197;SDS011;1611;49.394;11.136;2023-04-25T05:28:23;7.73;;;6.50;;
3197;SDS011;1611;49.394;11.136;2023-04-25T05:30:50;8.53;;;6.10;;
3197;SDS011;1611;49.394;11.136;2023-04-25T05:33:17;6.43;;;5.80;;
3197;SDS011;1611;49.394;11.136;2023-04-25T05:35:44;7.33;;;5.47;;
3197;SDS011;1611;49.394;11.136;2023-04-25T05:38:11;5.87;;;5.27;;
3197;SDS011;1611;49.394;11.136;2023-04-25T05:40:39;8.33;;;6.00;;
3197;SDS011;1611;49.394;11.136;2023-04-25T05:43:06;7.00;;;6.30;;
3197;SDS011;1611;49.394;11.136;2023-04-25T05:45:33;10.97;;;5.60;;
3197;SDS011;1611;49.394;11.136;2023-04-25T05:48:00;5.83;;;5.33;;
3197;SDS011;1611;49.394;11.136;2023-04-25T05:50:26;6.70;;;5.83;;
3197;SDS011;1611;49.394;11.136;2023-04-25T05:52:53;9.63;;;7.07;;
3197;SDS011;1611;49.394;11.136;2023-04-25T05:55:20;7.33;;;6.17;;
3197;SDS011;1611;49.394;11.136;2023-04-25T05:57:48;6.23;;;5.70;;
3197;SDS011;1611;49.394;11.136;2023-04-25T06:00:15;7.43;;;6.73;;
3197;SDS011;1611;49.394;11.136;2023-04-25T06:02:42;9.00;;;7.03;;
3197;SDS011;1611;49.394;11.136;2023-04-25T06:05:08;7.87;;;7.20;;
3197;SDS011;1611;49.394;11.136;2023-04-25T06:07:35;8.90;;;7.00;;
3197;SDS011;1611;49.394;11.136;2023-04-25T06:10:02;8.30;;;6.33;;
3197;SDS011;1611;49.394;11.136;2023-04-25T06:12:31;6.80;;;6.30;;
3197;SDS011;1611;49.394;11.136;2023-04-25T06:15:00;7.70;;;7.00;;
3197;SDS011;1611;49.394;11.136;2023-04-25T06:17:27;7.00;;;6.27;;
3197;SDS011;1611;49.394;11.136;2023-04-25T06:19:53;10.50;;;7.20;;
3197;SDS011;1611;49.394;11.136;2023-04-25T06:22:20;8.53;;;7.60;;
3197;SDS011;1611;49.394;11.136;2023-04-25T06:24:47;9.37;;;8.30;;
3197;SDS011;1611;49.394;11.136;2023-04-25T06:27:14;8.00;;;7.20;;
3197;SDS011;1611;49.394;11.136;2023-04-25T06:29:40;8.00;;;7.30;;
3197;SDS011;1611;49.394;11.136;2023-04-25T06:32:08;8.63;;;7.40;;
3197;SDS011;1611;49.394;11.136;2023-04-25T06:34:35;12.53;;;7.53;;
3197;SDS011;1611;49.394;11.136;2023-04-25T06:37:02;8.10;;;7.30;;
3197;SDS011;1611;49.394;11.136;2023-04-25T06:39:29;9.00;;;7.60;;
3197;SDS011;1611;49.394;11.136;2023-04-25T06:41:55;9.00;;;8.10;;
3197;SDS011;1611;49.394;11.136;2023-04-25T06:44:22;16.17;;;8.97;;
3197;SDS011;1611;49.394;11.136;2023-04-25T06:46:51;10.37;;;7.90;;
3197;SDS011;1611;49.394;11.136;2023-04-25T06:49:19;8.07;;;7.30;;
3197;SDS011;1611;49.394;11.136;2023-04-25T06:51:46;8.67;;;7.63;;
3197;SDS011;1611;49.394;11.136;2023-04-25T06:54:12;9.57;;;8.23;;
3197;SDS011;1611;49.394;11.136;2023-04-25T06:56:39;13.87;;;9.10;;
3197;SDS011;1611;49.394;11.136;2023-04-25T06:59:06;10.03;;;7.70;;
3197;SDS011;1611;49.394;11.136;2023-04-25T07:01:33;9.60;;;8.30;;
3197;SDS011;1611;49.394;11.136;2023-04-25T07:04:00;11.60;;;9.80;;
3197;SDS011;1611;49.394;11.136;2023-04-25T07:06:28;10.57;;;8.50;;
3197;SDS011;1611;49.394;11.136;2023-04-25T07:08:56;9.83;;;8.40;;
3197;SDS011;1611;49.394;11.136;2023-04-25T07:11:22;12.33;;;7.63;;
3197;SDS011;1611;49.394;11.136;2023-04-25T07:13:50;10.60;;;7.50;;
3197;SDS011;1611;49.394;11.136;2023-04-25T07:16:16;8.93;;;8.07;;
3197;SDS011;1611;49.394;11.136;2023-04-25T07:18:43;9.03;;;7.70;;
3197;SDS011;1611;49.394;11.136;2023-04-25T07:21:10;9.70;;;7.47;;
3197;SDS011;1611;49.394;11.136;2023-04-25T07:23:38;9.67;;;7.70;;
3197;SDS011;1611;49.394;11.136;2023-04-25T07:26:05;8.90;;;7.97;;
3197;SDS011;1611;49.394;11.136;2023-04-25T07:28:32;7.60;;;6.97;;
3197;SDS011;1611;49.394;11.136;2023-04-25T07:30:59;8.50;;;7.67;;
3197;SDS011;1611;49.394;11.136;2023-04-25T07:33:26;10.27;;;8.80;;
3197;SDS011;1611;49.394;11.136;2023-04-25T07:35:53;12.40;;;8.33;;
3197;SDS011;1611;49.394;11.136;2023-04-25T07:38:20;8.10;;;7.30;;
3197;SDS011;1611;49.394;11.136;2023-04-25T07:40:49;8.70;;;7.90;;
3197;SDS011;1611;49.394;11.136;2023-04-25T07:43:15;8.93;;;7.80;;
3197;SDS011;1611;49.394;11.136;2023-04-25T07:45:42;7.87;;;6.90;;
3197;SDS011;1611;49.394;11.136;2023-04-25T07:48:09;6.40;;;5.80;;
3197;SDS011;1611;49.394;11.136;2023-04-25T07:50:36;6.63;;;6.07;;
3197;SDS011;1611;49.394;11.136;2023-04-25T07:53:03;5.90;;;5.17;;
3197;SDS011;1611;49.394;11.136;2023-04-25T07:55:29;5.33;;;4.80;;
3197;SDS011;1611;49.394;11.136;2023-04-25T07:57:57;6.90;;;4.53;;
3197;SDS011;1611;49.394;11.136;2023-04-25T08:00:24;9.87;;;4.50;;
3197;SDS011;1611;49.394;11.136;2023-04-25T08:02:51;7.33;;;4.83;;
3197;SDS011;1611;49.394;11.136;2023-04-25T08:05:18;7.10;;;5.00;;
3197;SDS011;1611;49.394;11.136;2023-04-25T08:07:45;5.13;;;4.73;;
3197;SDS011;1611;49.394;11.136;2023-04-25T08:10:11;5.60;;;4.97;;
3197;SDS011;1611;49.394;11.136;2023-04-25T08:12:38;10.27;;;5.50;;
3197;SDS011;1611;49.394;11.136;2023-04-25T08:15:07;6.80;;;5.47;;
3197;SDS011;1611;49.394;11.136;2023-04-25T08:17:34;5.47;;;4.93;;
3197;SDS011;1611;49.394;11.136;2023-04-25T08:20:01;9.47;;;6.40;;
3197;SDS011;1611;49.394;11.136;2023-04-25T08:22:30;7.10;;;6.40;;
3197;SDS011;1611;49.394;11.136;2023-04-25T08:24:57;6.73;;;5.37;;
3197;SDS011;1611;49.394;11.136;2023-04-25T08:27:24;13.23;;;5.90;;
3197;SDS011;1611;49.394;11.136;2023-04-25T08:29:51;5.30;;;4.90;;
3197;SDS011;1611;49.394;11.136;2023-04-25T08:32:19;8.07;;;5.03;;
3197;SDS011;1611;49.394;11.136;2023-04-25T08:34:46;5.30;;;4.40;;
3197;SDS011;1611;49.394;11.136;2023-04-25T08:37:13;8.63;;;4.23;;
3197;SDS011;1611;49.394;11.136;2023-04-25T08:39:40;4.20;;;3.90;;
3197;SDS011;1611;49.394;11.136;2023-04-25T08:42:07;7.93;;;4.90;;
3197;SDS011;1611;49.394;11.136;2023-04-25T08:44:34;5.27;;;4.77;;
3197;SDS011;1611;49.394;11.136;2023-04-25T08:47:01;9.80;;;5.20;;
3197;SDS011;1611;49.394;11.136;2023-04-25T08:49:30;5.20;;;4.70;;
3197;SDS011;1611;49.394;11.136;2023-04-25T08:51:59;8.17;;;3.90;;
3197;SDS011;1611;49.394;11.136;2023-04-25T08:54:27;6.47;;;5.23;;
3197;SDS011;1611;49.394;11.136;2023-04-25T08:56:55;4.87;;;4.47;;
3197;SDS011;1611;49.394;11.136;2023-04-25T08:59:23;4.67;;;4.27;;
3197;SDS011;1611;49.394;11.136;2023-04-25T09:01:50;4.50;;;4.10;;
3197;SDS011;1611;49.394;11.136;2023-04-25T09:04:17;7.80;;;4.80;;
3197;SDS011;1611;49.394;11.136;2023-04-25T09:06:45;6.37;;;4.70;;
3197;SDS011;1611;49.394;11.136;2023-04-25T09:09:12;4.77;;;4.37;;
3197;SDS011;1611;49.394;11.136;2023-04-25T09:11:39;5.60;;;5.10;;
3197;SDS011;1611;49.394;11.136;2023-04-25T09:14:13;12.80;;;6.00;;
3197;SDS011;1611;49.394;11.136;2023-04-25T09:19:26;5.57;;;5.17;;
3197;SDS011;1611;49.394;11.136;2023-04-25T09:21:56;7.70;;;5.83;;
3197;SDS011;1611;49.394;11.136;2023-04-25T09:24:30;5.37;;;4.97;;
3197;SDS011;1611;49.394;11.136;2023-04-25T09:26:58;7.23;;;6.07;;
3197;SDS011;1611;49.394;11.136;2023-04-25T09:29:29;10.03;;;5.43;;
3197;SDS011;1611;49.394;11.136;2023-04-25T09:32:16;6.00;;;5.40;;
3197;SDS011;1611;49.394;11.136;2023-04-25T09:34:45;7.73;;;6.20;;
3197;SDS011;1611;49.394;11.136;2023-04-25T09:37:18;7.53;;;6.70;;
3197;SDS011;1611;49.394;11.136;2023-04-25T09:39:45;7.40;;;6.20;;
3197;SDS011;1611;49.394;11.136;2023-04-25T09:42:13;7.00;;;6.30;;
3197;SDS011;1611;49.394;11.136;2023-04-25T09:44:44;11.00;;;6.33;;
3197;SDS011;1611;49.394;11.136;2023-04-25T09:47:12;13.10;;;7.50;;
3197;SDS011;1611;49.394;11.136;2023-04-25T09:49:40;6.63;;;5.90;;
3197;SDS011;1611;49.394;11.136;2023-04-25T09:52:08;6.73;;;6.03;;
3197;SDS011;1611;49.394;11.136;2023-04-25T09:54:36;6.07;;;5.53;;
3197;SDS011;1611;49.394;11.136;2023-04-25T09:57:06;5.77;;;5.30;;
3197;SDS011;1611;49.394;11.136;2023-04-25T09:59:38;5.93;;;4.97;;
3197;SDS011;1611;49.394;11.136;2023-04-25T10:02:08;7.70;;;5.97;;
3197;SDS011;1611;49.394;11.136;2023-04-25T10:04:36;5.13;;;4.73;;
3197;SDS011;1611;49.394;11.136;2023-04-25T10:07:05;5.63;;;5.13;;
3197;SDS011;1611;49.394;11.136;2023-04-25T10:09:32;5.53;;;5.03;;
3197;SDS011;1611;49.394;11.136;2023-04-25T10:12:03;6.53;;;4.87;;
3197;SDS011;1611;49.394;11.136;2023-04-25T10:14:32;7.73;;;5.40;;
3197;SDS011;1611;49.394;11.136;2023-04-25T10:16:59;7.93;;;5.50;;
3197;SDS011;1611;49.394;11.136;2023-04-25T10:19:31;10.60;;;5.30;;
3197;SDS011;1611;49.394;11.136;2023-04-25T10:22:02;6.70;;;5.93;;
3197;SDS011;1611;49.394;11.136;2023-04-25T10:24:32;8.90;;;5.90;;
3197;SDS011;1611;49.394;11.136;2023-04-25T10:26:58;5.63;;;4.90;;
3197;SDS011;1611;49.394;11.136;2023-04-25T10:29:28;5.97;;;5.43;;
3197;SDS011;1611;49.394;11.136;2023-04-25T10:31:54;6.43;;;5.40;;
3197;SDS011;1611;49.394;11.136;2023-04-25T10:34:37;5.67;;;5.17;;
3197;SDS011;1611;49.394;11.136;2023-04-25T10:37:05;5.10;;;4.47;;
3197;SDS011;1611;49.394;11.136;2023-04-25T10:39:35;5.27;;;4.77;;
3197;SDS011;1611;49.394;11.136;2023-04-25T10:42:02;7.53;;;5.50;;
3197;SDS011;1611;49.394;11.136;2023-04-25T10:44:30;7.07;;;5.60;;
3197;SDS011;1611;49.394;11.136;2023-04-25T10:46:58;6.77;;;4.90;;
3197;SDS011;1611;49.394;11.136;2023-04-25T10:49:32;9.00;;;5.17;;
3197;SDS011;1611;49.394;11.136;2023-04-25T10:52:24;5.10;;;4.60;;
3197;SDS011;1611;49.394;11.136;2023-04-25T10:54:54;4.93;;;4.53;;
3197;SDS011;1611;49.394;11.136;2023-04-25T10:57:29;6.83;;;5.40;;
3197;SDS011;1611;49.394;11.136;2023-04-25T11:00:01;9.27;;;5.10;;
3197;SDS011;1611;49.394;11.136;2023-04-25T11:02:36;5.10;;;4.20;;
3197;SDS011;1611;49.394;11.136;2023-04-25T11:05:04;4.00;;;3.80;;
3197;SDS011;1611;49.394;11.136;2023-04-25T11:07:33;5.67;;;3.50;;
3197;SDS011;1611;49.394;11.136;2023-04-25T11:10:04;3.93;;;3.60;;
3197;SDS011;1611;49.394;11.136;2023-04-25T11:12:31;5.67;;;3.90;;
3197;SDS011;1611;49.394;11.136;2023-04-25T11:15:00;5.23;;;2.93;;
3197;SDS011;1611;49.394;11.136;2023-04-25T11:17:28;3.53;;;3.03;;
3197;SDS011;1611;49.394;11.136;2023-04-25T11:19:55;4.70;;;2.83;;
3197;SDS011;1611;49.394;11.136;2023-04-25T11:22:22;3.73;;;2.70;;
3197;SDS011;1611;49.394;11.136;2023-04-25T11:24:49;4.70;;;3.07;;
3197;SDS011;1611;49.394;11.136;2023-04-25T11:27:16;4.47;;;2.63;;
3197;SDS011;1611;49.394;11.136;2023-04-25T11:29:43;3.40;;;3.13;;
3197;SDS011;1611;49.394;11.136;2023-04-25T11:32:14;4.53;;;2.90;;
3197;SDS011;1611;49.394;11.136;2023-04-25T11:34:42;2.57;;;2.40;;
3197;SDS011;1611;49.394;11.136;2023-04-25T11:37:11;2.93;;;2.73;;
3197;SDS011;1611;49.394;11.136;2023-04-25T11:39:39;2.87;;;2.30;;
3197;SDS011;1611;49.394;11.136;2023-04-25T11:42:09;3.20;;;2.90;;
3197;SDS011;1611;49.394;11.136;2023-04-25T11:44:37;2.87;;;2.57;;
3197;SDS011;1611;49.394;11.136;2023-04-25T11:47:04;6.77;;;2.47;;
3197;SDS011;1611;49.394;11.136;2023-04-25T11:49:32;5.43;;;2.30;;
3197;SDS011;1611;49.394;11.136;2023-04-25T11:52:00;3.00;;;2.10;;
3197;SDS011;1611;49.394;11.136;2023-04-25T11:54:27;5.30;;;2.47;;
3197;SDS011;1611;49.394;11.136;2023-04-25T11:56:54;2.30;;;2.20;;
3197;SDS011;1611;49.394;11.136;2023-04-25T11:59:23;2.63;;;2.43;;
3197;SDS011;1611;49.394;11.136;2023-04-25T12:01:51;3.17;;;2.20;;
3197;SDS011;1611;49.394;11.136;2023-04-25T12:04:18;3.57;;;2.10;;
3197;SDS011;1611;49.394;11.136;2023-04-25T12:06:48;2.07;;;1.90;;
3197;SDS011;1611;49.394;11.136;2023-04-25T12:09:17;4.73;;;1.83;;
3197;SDS011;1611;49.394;11.136;2023-04-25T12:11:46;4.33;;;1.83;;
3197;SDS011;1611;49.394;11.136;2023-04-25T12:14:20;2.30;;;1.90;;
3197;SDS011;1611;49.394;11.136;2023-04-25T12:16:49;3.73;;;1.90;;
3197;SDS011;1611;49.394;11.136;2023-04-25T12:19:17;1.50;;;1.40;;
3197;SDS011;1611;49.394;11.136;2023-04-25T12:21:45;1.60;;;1.60;;
3197;SDS011;1611;49.394;11.136;2023-04-25T12:24:14;2.40;;;2.20;;
3197;SDS011;1611;49.394;11.136;2023-04-25T12:26:48;4.30;;;1.90;;
3197;SDS011;1611;49.394;11.136;2023-04-25T12:29:17;2.37;;;1.90;;
3197;SDS011;1611;49.394;11.136;2023-04-25T12:31:45;2.30;;;1.80;;
3197;SDS011;1611;49.394;11.136;2023-04-25T12:34:12;2.77;;;2.13;;
3197;SDS011;1611;49.394;11.136;2023-04-25T12:36:39;1.70;;;1.60;;
3197;SDS011;1611;49.394;11.136;2023-04-25T12:39:06;2.80;;;1.90;;
3197;SDS011;1611;49.394;11.136;2023-04-25T12:41:35;1.87;;;1.87;;
3197;SDS011;1611;49.394;11.136;2023-04-25T12:44:02;4.77;;;2.40;;
3197;SDS011;1611;49.394;11.136;2023-04-25T12:46:29;2.10;;;2.00;;
3197;SDS011;1611;49.394;11.136;2023-04-25T12:48:56;5.50;;;1.83;;
3197;SDS011;1611;49.394;11.136;2023-04-25T12:51:23;2.00;;;1.90;;
3197;SDS011;1611;49.394;11.136;2023-04-25T12:53:51;3.00;;;1.93;;
3197;SDS011;1611;49.394;11.136;2023-04-25T12:56:18;4.60;;;2.03;;
3197;SDS011;1611;49.394;11.136;2023-04-25T12:58:46;2.00;;;1.90;;
3197;SDS011;1611;49.394;11.136;2023-04-25T13:01:13;3.40;;;2.80;;
3197;SDS011;1611;49.394;11.136;2023-04-25T13:03:40;2.60;;;2.10;;
3197;SDS011;1611;49.394;11.136;2023-04-25T13:06:06;2.37;;;2.17;;
3197;SDS011;1611;49.394;11.136;2023-04-25T13:08:33;3.80;;;2.00;;
3197;SDS011;1611;49.394;11.136;2023-04-25T13:11:01;7.43;;;1.97;;
3197;SDS011;1611;49.394;11.136;2023-04-25T13:13:29;2.83;;;2.63;;
3197;SDS011;1611;49.394;11.136;2023-04-25T13:15:57;2.40;;;2.13;;
3197;SDS011;1611;49.394;11.136;2023-04-25T13:18:24;2.40;;;2.20;;
3197;SDS011;1611;49.394;11.136;2023-04-25T13:20:51;3.70;;;3.10;;
3197;SDS011;1611;49.394;11.136;2023-04-25T13:23:18;4.13;;;2.00;;
3197;SDS011;1611;49.394;11.136;2023-04-25T13:25:46;2.47;;;2.27;;
3197;SDS011;1611;49.394;11.136;2023-04-25T13:28:13;2.00;;;1.83;;
3197;SDS011;1611;49.394;11.136;2023-04-25T13:30:41;2.40;;;2.20;;
3197;SDS011;1611;49.394;11.136;2023-04-25T13:33:09;2.60;;;2.40;;
3197;SDS011;1611;49.394;11.136;2023-04-25T13:35:37;2.80;;;2.60;;
3197;SDS011;1611;49.394;11.136;2023-04-25T13:38:04;2.83;;;2.57;;
3197;SDS011;1611;49.394;11.136;2023-04-25T13:40:31;3.83;;;2.43;;
3197;SDS011;1611;49.394;11.136;2023-04-25T13:42:58;2.83;;;2.63;;
3197;SDS011;1611;49.394;11.136;2023-04-25T13:45:25;6.03;;;3.10;;
3197;SDS011;1611;49.394;11.136;2023-04-25T13:47:54;2.87;;;2.60;;
3197;SDS011;1611;49.394;11.136;2023-04-25T13:50:23;2.47;;;2.33;;
3197;SDS011;1611;49.394;11.136;2023-04-25T13:52:50;4.00;;;2.80;;
3197;SDS011;1611;49.394;11.136;2023-04-25T13:55:16;2.37;;;2.17;;
3197;SDS011;1611;49.394;11.136;2023-04-25T13:57:43;3.30;;;2.50;;
3197;SDS011;1611;49.394;11.136;2023-04-25T14:00:11;5.80;;;3.30;;
3197;SDS011;1611;49.394;11.136;2023-04-25T14:02:38;4.03;;;2.83;;
3197;SDS011;1611;49.394;11.136;2023-04-25T14:05:05;2.47;;;2.30;;
3197;SDS011;1611;49.394;11.136;2023-04-25T14:07:35;3.00;;;2.80;;
3197;SDS011;1611;49.394;11.136;2023-04-25T14:10:02;2.80;;;2.57;;
3197;SDS011;1611;49.394;11.136;2023-04-25T14:12:30;3.03;;;2.83;;
3197;SDS011;1611;49.394;11.136;2023-04-25T14:14:57;2.80;;;2.47;;
3197;SDS011;1611;49.394;11.136;2023-04-25T14:17:24;4.43;;;2.67;;
3197;SDS011;1611;49.394;11.136;2023-04-25T14:19:51;3.63;;;2.60;;
3197;SDS011;1611;49.394;11.136;2023-04-25T14:22:18;2.97;;;2.77;;
3197;SDS011;1611;49.394;11.136;2023-04-25T14:24:46;2.40;;;2.30;;
3197;SDS011;1611;49.394;11.136;2023-04-25T14:27:13;3.13;;;2.90;;
3197;SDS011;1611;49.394;11.136;2023-04-25T14:29:39;2.83;;;2.60;;
3197;SDS011;1611;49.394;11.136;2023-04-25T14:32:06;4.10;;;3.37;;
3197;SDS011;1611;49.394;11.136;2023-04-25T14:34:33;7.40;;;3.50;;
3197;SDS011;1611;49.394;11.136;2023-04-25T14:37:00;6.50;;;3.63;;
3197;SDS011;1611;49.394;11.136;2023-04-25T14:39:27;3.50;;;3.20;;
3197;SDS011;1611;49.394;11.136;2023-04-25T14:41:55;4.60;;;3.53;;
3197;SDS011;1611;49.394;11.136;2023-04-25T14:44:22;3.60;;;3.30;;
3197;SDS011;1611;49.394;11.136;2023-04-25T14:46:49;3.57;;;2.90;;
3197;SDS011;1611;49.394;11.136;2023-04-25T14:49:17;9.23;;;3.10;;
3197;SDS011;1611;49.394;11.136;2023-04-25T14:51:44;6.17;;;3.30;;
3197;SDS011;1611;49.394;11.136;2023-04-25T14:54:10;4.00;;;3.37;;
3197;SDS011;1611;49.394;11.136;2023-04-25T14:56:38;3.90;;;3.60;;
3197;SDS011;1611;49.394;11.136;2023-04-25T14:59:06;6.00;;;3.73;;
3197;SDS011;1611;49.394;11.136;2023-04-25T15:01:32;5.37;;;4.40;;
3197;SDS011;1611;49.394;11.136;2023-04-25T15:03:59;4.73;;;3.73;;
3197;SDS011;1611;49.394;11.136;2023-04-25T15:06:26;9.33;;;3.37;;
3197;SDS011;1611;49.394;11.136;2023-04-25T15:08:54;6.40;;;3.90;;